createdAt,value
2024-02-08T00:01:22.546Z,12.64
2024-02-08T00:03:53.730Z,12.80
2024-02-08T00:06:21.037Z,12.82
2024-02-08T00:08:48.484Z,12.63
2024-02-08T00:11:16.054Z,12.67
2024-02-08T00:13:43.356Z,12.73
2024-02-08T00:16:12.862Z,12.58
2024-02-08T00:18:40.615Z,12.76
2024-02-08T00:21:10.735Z,12.70
2024-02-08T00:23:41.091Z,12.75
2024-02-08T00:26:08.729Z,12.75
2024-02-08T00:28:36.342Z,12.82
2024-02-08T00:31:07.970Z,12.83
2024-02-08T00:33:35.556Z,12.83
2024-02-08T00:36:03.617Z,12.85
2024-02-08T00:38:31.149Z,12.82
2024-02-08T00:40:58.567Z,12.67
2024-02-08T00:43:26.985Z,12.77
2024-02-08T00:45:55.738Z,12.84
2024-02-08T00:48:23.769Z,12.79
2024-02-08T00:50:51.323Z,12.68
2024-02-08T00:53:20.499Z,12.74
2024-02-08T00:55:48.029Z,12.83
2024-02-08T00:58:17.274Z,12.79
2024-02-08T01:00:45.318Z,12.77
2024-02-08T01:03:15.165Z,12.62
2024-02-08T01:05:43.702Z,12.55
2024-02-08T01:08:11.536Z,12.42
2024-02-08T01:10:39.099Z,12.52
2024-02-08T01:13:06.605Z,12.47
2024-02-08T01:15:34.639Z,12.67
2024-02-08T01:18:05.125Z,12.68
2024-02-08T01:20:33.512Z,12.72
2024-02-08T01:23:01.491Z,12.76
2024-02-08T01:25:28.821Z,12.79
2024-02-08T01:27:57.065Z,12.80
2024-02-08T01:30:26.113Z,12.75
2024-02-08T01:32:54.540Z,12.81
2024-02-08T01:35:27.823Z,12.85
2024-02-08T01:37:55.356Z,12.88
2024-02-08T01:40:24.062Z,12.83
2024-02-08T01:42:59.034Z,12.75
2024-02-08T01:45:39.205Z,12.87
2024-02-08T01:48:12.372Z,12.91
2024-02-08T01:50:43.952Z,12.87
2024-02-08T01:53:15.962Z,12.86
2024-02-08T01:55:51.992Z,12.78
2024-02-08T01:58:21.823Z,12.87
2024-02-08T02:00:52.244Z,12.84
2024-02-08T02:03:21.410Z,12.89
2024-02-08T02:05:49.100Z,12.77
2024-02-08T02:08:23.090Z,12.79
2024-02-08T02:11:26.060Z,12.77
2024-02-08T02:13:55.774Z,12.76
2024-02-08T02:16:24.955Z,12.82
2024-02-08T02:18:52.578Z,12.74
2024-02-08T02:21:22.176Z,12.70
2024-02-08T02:23:50.215Z,12.70
2024-02-08T02:26:20.263Z,12.73
2024-02-08T02:28:49.240Z,12.75
2024-02-08T02:31:18.240Z,12.71
2024-02-08T02:33:47.916Z,12.67
2024-02-08T02:36:16.055Z,12.50
2024-02-08T02:38:44.314Z,12.59
2024-02-08T02:41:12.085Z,12.46
2024-02-08T02:43:41.136Z,12.52
2024-02-08T02:46:08.947Z,12.47
2024-02-08T02:48:36.829Z,12.24
2024-02-08T02:51:04.971Z,12.24
2024-02-08T02:53:32.357Z,12.13
2024-02-08T02:56:00.464Z,12.23
2024-02-08T02:58:28.388Z,12.19
2024-02-08T03:01:06.634Z,12.28
2024-02-08T03:03:39.470Z,12.24
2024-02-08T03:06:17.151Z,12.26
2024-02-08T03:08:47.105Z,12.27
2024-02-08T03:11:15.507Z,12.17
2024-02-08T03:13:45.485Z,12.23
2024-02-08T03:16:16.483Z,12.22
2024-02-08T03:18:45.403Z,12.16
2024-02-08T03:21:19.834Z,12.15
2024-02-08T03:23:51.541Z,12.14
2024-02-08T03:26:21.633Z,12.01
2024-02-08T03:28:53.269Z,12.11
2024-02-08T03:31:20.933Z,12.14
2024-02-08T03:33:48.433Z,12.17
2024-02-08T03:36:16.031Z,12.13
2024-02-08T03:38:45.596Z,12.16
2024-02-08T03:41:13.733Z,12.21
2024-02-08T03:43:41.227Z,12.20
2024-02-08T03:46:09.536Z,12.16
2024-02-08T03:48:38.333Z,12.24
2024-02-08T03:51:06.129Z,12.26
2024-02-08T03:53:38.530Z,12.23
2024-02-08T03:56:08.004Z,12.22
2024-02-08T03:58:38.022Z,12.20
2024-02-08T04:01:10.410Z,12.16
2024-02-08T04:03:55.390Z,12.19
2024-02-08T04:06:43.498Z,12.39
2024-02-08T04:09:18.172Z,12.31
2024-02-08T04:12:04.257Z,12.38
2024-02-08T04:14:50.477Z,12.34
2024-02-08T04:17:36.194Z,12.31
2024-02-08T04:20:22.375Z,12.34
2024-02-08T04:23:08.317Z,12.32
2024-02-08T04:25:54.453Z,12.34
2024-02-08T04:28:40.281Z,12.36
2024-02-08T04:31:29.148Z,12.39
2024-02-08T04:34:16.274Z,12.41
2024-02-08T04:37:02.591Z,12.43
2024-02-08T04:39:48.474Z,12.41
2024-02-08T04:42:35.097Z,12.39
2024-02-08T04:45:21.365Z,12.38
2024-02-08T04:48:07.183Z,12.30
2024-02-08T04:50:52.922Z,12.24
2024-02-08T04:53:39.196Z,11.97
2024-02-08T04:56:12.802Z,11.91
2024-02-08T05:01:13.302Z,11.71
2024-02-08T05:03:45.275Z,11.77
2024-02-08T05:06:20.409Z,11.67
2024-02-08T05:08:49.225Z,11.67
2024-02-08T05:11:18.170Z,11.61
2024-02-08T05:13:53.227Z,11.65
2024-02-08T05:16:21.425Z,11.72
2024-02-08T05:18:50.372Z,11.47
2024-02-08T05:21:19.253Z,11.51
2024-02-08T05:23:49.394Z,11.34
2024-02-08T05:26:21.096Z,11.47
2024-02-08T05:28:49.963Z,11.50
2024-02-08T05:31:18.257Z,11.56
2024-02-08T05:33:47.296Z,11.61
2024-02-08T05:36:19.035Z,11.56
2024-02-08T05:38:47.702Z,11.59
2024-02-08T05:41:18.907Z,11.67
2024-02-08T05:43:47.327Z,11.59
2024-02-08T05:46:31.849Z,11.63
2024-02-08T05:49:06.542Z,11.66
2024-02-08T05:51:36.019Z,11.70
2024-02-08T05:54:03.964Z,11.63
2024-02-08T05:56:32.128Z,11.62
2024-02-08T05:59:07.097Z,11.76
2024-02-08T06:01:45.975Z,11.79
2024-02-08T06:04:14.098Z,11.78
2024-02-08T06:07:08.613Z,11.74
2024-02-08T06:09:47.227Z,11.60
2024-02-08T06:12:25.728Z,11.77
2024-02-08T06:15:00.427Z,11.70
2024-02-08T06:17:33.958Z,11.71
2024-02-08T06:20:02.061Z,11.78
2024-02-08T06:22:30.795Z,11.69
2024-02-08T06:25:10.343Z,11.75
2024-02-08T06:27:38.675Z,11.77
2024-02-08T06:30:10.854Z,11.84
2024-02-08T06:32:47.592Z,11.96
2024-02-08T06:35:21.364Z,11.99
2024-02-08T06:38:04.193Z,12.00
2024-02-08T06:40:50.714Z,11.99
2024-02-08T06:43:21.618Z,12.02
2024-02-08T06:45:50.018Z,12.11
2024-02-08T06:48:18.317Z,12.07
2024-02-08T06:51:04.419Z,12.18
2024-02-08T06:54:10.308Z,12.28
2024-02-08T06:56:58.724Z,12.37
2024-02-08T06:59:44.489Z,12.42
2024-02-08T07:02:30.414Z,12.33
2024-02-08T07:05:16.326Z,12.49
2024-02-08T07:08:02.194Z,12.51
2024-02-08T07:10:48.168Z,12.66
2024-02-08T07:13:34.036Z,12.64
2024-02-08T07:16:19.774Z,12.75
2024-02-08T07:19:07.803Z,12.77
2024-02-08T07:21:56.518Z,12.88
2024-02-08T07:24:43.197Z,12.99
2024-02-08T07:27:29.172Z,13.09
2024-02-08T07:30:16.029Z,13.16
2024-02-08T07:33:02.053Z,13.26
2024-02-08T07:35:48.114Z,13.35
2024-02-08T07:38:16.155Z,13.48
2024-02-08T07:40:45.326Z,13.56
2024-02-08T07:43:16.372Z,13.60
2024-02-08T07:45:47.859Z,13.81
2024-02-08T07:48:37.278Z,13.81
2024-02-08T07:51:05.963Z,13.92
2024-02-08T07:53:37.142Z,14.01
2024-02-08T07:56:23.803Z,14.14
2024-02-08T07:58:51.219Z,14.27
2024-02-08T08:01:22.108Z,14.42
2024-02-08T08:03:58.463Z,14.57
2024-02-08T08:06:27.515Z,14.70
2024-02-08T08:09:02.733Z,14.76
2024-02-08T08:11:32.660Z,15.07
2024-02-08T08:14:00.517Z,15.24
2024-02-08T08:16:32.074Z,15.49
2024-02-08T08:19:10.403Z,15.59
2024-02-08T08:21:59.532Z,15.66
2024-02-08T08:24:28.388Z,15.69
2024-02-08T08:27:27.942Z,15.88
2024-02-08T08:30:00.198Z,15.87
2024-02-08T08:32:34.179Z,16.00
2024-02-08T08:35:25.706Z,16.06
2024-02-08T08:38:20.223Z,16.15
2024-02-08T08:41:13.125Z,16.14
2024-02-08T08:43:48.382Z,16.31
2024-02-08T08:46:20.385Z,16.24
2024-02-08T08:48:53.036Z,16.45
2024-02-08T08:51:32.435Z,16.44
2024-02-08T08:54:15.798Z,16.63
2024-02-08T08:56:45.924Z,16.64
2024-02-08T08:59:13.730Z,16.53
2024-02-08T09:01:42.444Z,16.59
2024-02-08T09:04:12.163Z,16.44
2024-02-08T09:06:43.548Z,16.54
2024-02-08T09:09:29.968Z,16.62
2024-02-08T09:12:00.226Z,16.56
2024-02-08T09:14:34.030Z,16.66
2024-02-08T09:17:24.017Z,16.79
2024-02-08T09:19:52.462Z,16.90
2024-02-08T09:22:21.284Z,16.99
2024-02-08T09:24:50.443Z,17.21
2024-02-08T09:27:20.523Z,17.26
2024-02-08T09:30:10.147Z,17.27
2024-02-08T09:32:47.061Z,17.41
2024-02-08T09:35:15.430Z,17.54
2024-02-08T09:37:47.317Z,17.58
2024-02-08T09:40:31.772Z,17.60
2024-02-08T09:43:02.248Z,17.63
2024-02-08T09:45:35.885Z,17.75
2024-02-08T09:48:12.696Z,18.01
2024-02-08T09:50:49.301Z,18.01
2024-02-08T09:53:31.980Z,17.96
2024-02-08T09:56:17.117Z,18.09
2024-02-08T09:59:05.214Z,18.22
2024-02-08T10:01:45.843Z,18.32
2024-02-08T10:04:18.822Z,18.45
2024-02-08T10:06:48.043Z,18.59
2024-02-08T10:09:35.048Z,18.60
2024-02-08T10:12:09.996Z,18.59
2024-02-08T10:14:38.386Z,18.51
2024-02-08T10:17:19.854Z,18.43
2024-02-08T10:20:20.645Z,18.38
2024-02-08T10:22:55.685Z,18.46
2024-02-08T10:25:47.338Z,18.44
2024-02-08T10:28:26.051Z,18.41
2024-02-08T10:31:14.252Z,18.53
2024-02-08T10:33:50.287Z,18.57
2024-02-08T10:36:23.161Z,18.72
2024-02-08T10:38:56.226Z,18.88
2024-02-08T10:41:30.475Z,18.90
2024-02-08T10:44:00.426Z,18.96
2024-02-08T10:46:33.818Z,19.08
2024-02-08T10:49:03.354Z,19.11
2024-02-08T10:51:33.347Z,19.15
2024-02-08T10:54:07.210Z,19.17
2024-02-08T10:56:42.658Z,19.21
2024-02-08T10:59:15.274Z,19.22
2024-02-08T11:01:52.252Z,19.38
2024-02-08T11:04:30.828Z,19.19
2024-02-08T11:07:18.385Z,19.17
2024-02-08T11:09:47.161Z,19.39
2024-02-08T11:12:23.272Z,19.53
2024-02-08T11:14:58.366Z,19.45
2024-02-08T11:17:32.273Z,19.42
2024-02-08T11:20:00.862Z,19.21
2024-02-08T11:22:41.580Z,19.15
2024-02-08T11:25:21.249Z,18.98
2024-02-08T11:27:53.537Z,18.79
2024-02-08T11:30:36.377Z,18.98
2024-02-08T11:33:05.892Z,19.04
2024-02-08T11:35:36.463Z,19.06
2024-02-08T11:40:47.468Z,19.18
2024-02-08T11:43:25.741Z,19.04
2024-02-08T11:45:58.327Z,19.07
2024-02-08T11:48:31.139Z,19.30
2024-02-08T11:51:00.497Z,19.37
2024-02-08T11:53:34.813Z,19.39
2024-02-08T11:56:10.297Z,19.44
2024-02-08T11:58:49.358Z,19.53
2024-02-08T12:01:19.507Z,19.55
2024-02-08T12:03:52.094Z,19.50
2024-02-08T12:06:20.286Z,19.60
2024-02-08T12:09:05.655Z,19.61
2024-02-08T12:11:54.232Z,19.56
2024-02-08T12:14:27.001Z,19.50
2024-02-08T12:16:59.361Z,19.46
2024-02-08T12:19:32.503Z,19.55
2024-02-08T12:22:05.969Z,19.39
2024-02-08T12:24:36.913Z,19.40
2024-02-08T12:27:17.446Z,19.33
2024-02-08T12:29:50.301Z,19.19
2024-02-08T12:32:19.442Z,19.30
2024-02-08T12:34:51.579Z,19.24
2024-02-08T12:37:24.820Z,19.28
2024-02-08T12:39:52.988Z,19.23
2024-02-08T12:42:25.180Z,19.24
2024-02-08T12:44:53.206Z,19.31
2024-02-08T12:47:21.035Z,19.39
2024-02-08T12:49:49.765Z,19.41
2024-02-08T12:52:18.540Z,19.47
2024-02-08T12:54:56.389Z,19.62
2024-02-08T12:57:25.546Z,19.46
2024-02-08T13:00:14.757Z,19.49
2024-02-08T13:02:43.802Z,19.51
2024-02-08T13:05:11.316Z,19.47
2024-02-08T13:07:39.545Z,19.54
2024-02-08T13:10:17.281Z,19.43
2024-02-08T13:12:46.692Z,19.40
2024-02-08T13:15:23.304Z,19.53
2024-02-08T13:17:52.725Z,19.71
2024-02-08T13:20:23.227Z,19.73
2024-02-08T13:22:53.970Z,19.52
2024-02-08T13:25:29.843Z,19.57
2024-02-08T13:28:01.294Z,19.47
2024-02-08T13:30:31.523Z,19.42
2024-02-08T13:32:59.675Z,19.38
2024-02-08T13:35:30.433Z,19.46
2024-02-08T13:37:59.728Z,19.49
2024-02-08T13:40:28.195Z,19.34
2024-02-08T13:42:58.274Z,19.38
2024-02-08T13:45:28.104Z,19.35
2024-02-08T13:47:59.725Z,19.29
2024-02-08T13:50:33.592Z,19.37
2024-02-08T13:53:04.664Z,19.25
2024-02-08T13:58:08.634Z,19.36
2024-02-08T14:00:37.275Z,19.40
2024-02-08T14:03:05.756Z,19.46
2024-02-08T14:05:40.629Z,19.32
2024-02-08T14:08:19.308Z,19.40
2024-02-08T14:10:47.427Z,19.46
2024-02-08T14:13:20.437Z,19.36
2024-02-08T14:15:50.138Z,19.42
2024-02-08T14:18:29.006Z,19.45
2024-02-08T14:21:01.988Z,19.42
2024-02-08T14:23:32.243Z,19.24
2024-02-08T14:26:10.316Z,19.17
2024-02-08T14:28:44.712Z,19.13
2024-02-08T14:31:12.566Z,19.15
2024-02-08T14:33:48.597Z,19.03
2024-02-08T14:36:20.135Z,18.95
2024-02-08T14:38:49.660Z,19.01
2024-02-08T14:41:35.987Z,18.99
2024-02-08T14:44:11.179Z,19.04
2024-02-08T14:46:42.195Z,18.94
2024-02-08T14:49:28.795Z,18.87
2024-02-08T14:52:16.926Z,18.88
2024-02-08T14:54:45.083Z,18.94
2024-02-08T14:57:21.367Z,19.00
2024-02-08T14:59:52.810Z,19.03
2024-02-08T15:02:24.751Z,19.03
2024-02-08T15:05:02.277Z,19.08
2024-02-08T15:07:50.305Z,19.12
2024-02-08T15:10:22.990Z,19.18
2024-02-08T15:12:58.922Z,19.20
2024-02-08T15:15:35.575Z,19.21
2024-02-08T15:18:16.563Z,19.19
2024-02-08T15:20:58.214Z,19.24
2024-02-08T15:23:33.573Z,19.16
2024-02-08T15:26:14.824Z,19.09
2024-02-08T15:28:44.068Z,19.01
2024-02-08T15:31:17.926Z,19.07
2024-02-08T15:34:04.627Z,19.03
2024-02-08T15:36:51.478Z,18.81
2024-02-08T15:39:28.621Z,18.85
2024-02-08T15:42:03.079Z,18.77
2024-02-08T15:44:37.301Z,18.77
2024-02-08T15:47:14.341Z,18.72
2024-02-08T15:49:45.827Z,18.66
2024-02-08T15:52:17.337Z,18.54
2024-02-08T15:54:46.939Z,18.66
2024-02-08T15:57:15.499Z,18.52
2024-02-08T15:59:47.354Z,18.62
2024-02-08T16:02:19.218Z,18.59
2024-02-08T16:04:52.521Z,18.49
2024-02-08T16:07:29.541Z,18.58
2024-02-08T16:10:00.474Z,18.56
2024-02-08T16:12:32.810Z,18.43
2024-02-08T16:15:09.027Z,18.40
2024-02-08T16:17:39.265Z,18.41
2024-02-08T16:20:18.809Z,18.35
2024-02-08T16:23:06.136Z,18.24
2024-02-08T16:25:46.099Z,18.25
2024-02-08T16:28:20.514Z,18.12
2024-02-08T16:30:59.742Z,18.13
2024-02-08T16:33:49.953Z,17.93
2024-02-08T16:36:29.349Z,17.69
2024-02-08T16:39:09.279Z,17.50
2024-02-08T16:41:50.209Z,17.30
2024-02-08T16:44:23.910Z,17.16
2024-02-08T16:46:56.485Z,17.06
2024-02-08T16:49:33.070Z,17.17
2024-02-08T16:52:06.318Z,17.15
2024-02-08T16:54:44.066Z,17.13
2024-02-08T16:57:19.267Z,17.09
2024-02-08T16:59:50.283Z,17.03
2024-02-08T17:02:27.227Z,16.93
2024-02-08T17:05:11.811Z,16.87
2024-02-08T17:07:45.726Z,16.81
2024-02-08T17:10:35.518Z,16.77
2024-02-08T17:13:17.259Z,16.74
2024-02-08T17:16:01.828Z,16.64
2024-02-08T17:18:39.106Z,16.38
2024-02-08T17:21:08.779Z,16.47
2024-02-08T17:23:44.596Z,16.49
2024-02-08T17:26:28.339Z,16.40
2024-02-08T17:29:15.770Z,16.26
2024-02-08T17:31:44.261Z,16.16
2024-02-08T17:34:17.220Z,16.11
2024-02-08T17:36:46.498Z,16.10
2024-02-08T17:39:38.399Z,15.93
2024-02-08T17:42:09.782Z,15.98
2024-02-08T17:44:42.618Z,15.98
2024-02-08T17:47:12.304Z,15.86
2024-02-08T17:49:40.807Z,15.70
2024-02-08T17:52:09.720Z,15.35
2024-02-08T17:54:46.806Z,15.15
2024-02-08T17:57:24.305Z,15.11
2024-02-08T18:00:01.089Z,14.91
2024-02-08T18:02:37.836Z,14.57
2024-02-08T18:05:10.554Z,14.67
2024-02-08T18:07:38.588Z,14.61
2024-02-08T18:10:19.069Z,14.81
2024-02-08T18:12:53.685Z,14.73
2024-02-08T18:15:27.413Z,14.86
2024-02-08T18:17:58.259Z,14.81
2024-02-08T18:20:31.883Z,14.76
2024-02-08T18:23:04.431Z,14.78
2024-02-08T18:25:32.602Z,14.81
2024-02-08T18:28:02.224Z,14.77
2024-02-08T18:30:36.528Z,14.78
2024-02-08T18:33:06.850Z,14.78
2024-02-08T18:35:36.015Z,14.72
2024-02-08T18:38:09.827Z,14.66
2024-02-08T18:40:40.384Z,14.70
2024-02-08T18:43:08.391Z,14.58
2024-02-08T18:45:39.137Z,14.60
2024-02-08T18:48:12.738Z,14.62
2024-02-08T18:50:44.583Z,14.61
2024-02-08T18:53:14.306Z,14.54
2024-02-08T18:55:52.740Z,14.43
2024-02-08T18:58:23.303Z,14.44
2024-02-08T19:00:56.606Z,14.45
2024-02-08T19:03:29.063Z,14.43
2024-02-08T19:06:01.615Z,14.45
2024-02-08T19:08:37.807Z,14.28
2024-02-08T19:11:05.640Z,13.77
2024-02-08T19:13:37.362Z,13.78
2024-02-08T19:16:13.851Z,13.77
2024-02-08T19:18:45.941Z,12.96
2024-02-08T19:21:27.815Z,13.13
2024-02-08T19:23:57.090Z,13.21
2024-02-08T19:26:26.797Z,13.29
2024-02-08T19:28:56.526Z,12.59
2024-02-08T19:31:38.853Z,12.57
2024-02-08T19:34:10.040Z,12.65
2024-02-08T19:36:38.789Z,12.52
2024-02-08T19:39:33.040Z,12.28
2024-02-08T19:42:03.493Z,12.30
2024-02-08T19:44:37.203Z,12.40
2024-02-08T19:47:15.537Z,12.55
2024-02-08T19:49:43.592Z,12.70
2024-02-08T19:52:16.903Z,12.67
2024-02-08T19:54:51.635Z,12.76
2024-02-08T19:57:30.649Z,12.75
2024-02-08T19:59:58.546Z,12.75
2024-02-08T20:02:29.513Z,12.54
2024-02-08T20:05:01.651Z,12.49
2024-02-08T20:07:41.924Z,12.57
2024-02-08T20:10:16.506Z,12.47
2024-02-08T20:12:47.356Z,12.50
2024-02-08T20:15:20.875Z,12.60
2024-02-08T20:17:53.651Z,12.20
2024-02-08T20:20:23.533Z,12.15
2024-02-08T20:22:55.775Z,12.28
2024-02-08T20:25:29.139Z,12.28
2024-02-08T20:28:01.228Z,12.27
2024-02-08T20:30:30.058Z,12.27
2024-02-08T20:33:03.040Z,12.18
2024-02-08T20:35:33.712Z,12.22
2024-02-08T20:38:01.612Z,12.18
2024-02-08T20:40:29.926Z,12.16
2024-02-08T20:43:00.790Z,12.08
2024-02-08T20:45:28.836Z,12.10
2024-02-08T20:47:57.572Z,12.05
2024-02-08T20:50:26.475Z,12.06
2024-02-08T20:52:56.052Z,12.01
2024-02-08T20:55:36.902Z,11.88
2024-02-08T20:58:12.394Z,11.92
2024-02-08T21:00:44.329Z,11.95
2024-02-08T21:03:15.033Z,11.84
2024-02-08T21:05:43.858Z,11.60
2024-02-08T21:08:12.857Z,11.77
2024-02-08T21:11:00.342Z,11.75
2024-02-08T21:13:33.703Z,11.58
2024-02-08T21:16:01.764Z,11.69
2024-02-08T21:18:29.880Z,11.76
2024-02-08T21:20:57.870Z,11.76
2024-02-08T21:23:27.749Z,11.39
2024-02-08T21:26:02.262Z,11.48
2024-02-08T21:28:31.319Z,11.30
2024-02-08T21:30:59.760Z,11.25
2024-02-08T21:33:33.656Z,11.27
2024-02-08T21:36:05.522Z,11.27
2024-02-08T21:38:37.273Z,11.32
2024-02-08T21:41:07.550Z,11.35
2024-02-08T21:43:40.570Z,11.36
2024-02-08T21:46:13.119Z,11.37
2024-02-08T21:48:42.725Z,11.35
2024-02-08T21:51:16.123Z,11.38
2024-02-08T21:53:46.755Z,11.38
2024-02-08T21:56:18.957Z,11.27
2024-02-08T21:58:49.725Z,11.30
2024-02-08T22:01:36.373Z,11.20
2024-02-08T22:04:10.747Z,11.19
2024-02-08T22:06:41.411Z,11.16
2024-02-08T22:09:12.925Z,11.19
2024-02-08T22:11:50.725Z,10.99
2024-02-08T22:14:21.437Z,10.79
2024-02-08T22:16:50.611Z,10.73
2024-02-08T22:19:22.664Z,10.80
2024-02-08T22:21:51.569Z,10.66
2024-02-08T22:24:20.986Z,10.71
2024-02-08T22:26:53.588Z,10.53
2024-02-08T22:29:22.956Z,10.50
2024-02-08T22:31:50.962Z,10.56
2024-02-08T22:34:20.381Z,10.62
2024-02-08T22:36:49.693Z,10.67
2024-02-08T22:39:18.424Z,10.69
2024-02-08T22:41:51.386Z,10.67
2024-02-08T22:44:20.238Z,10.71
2024-02-08T22:46:48.314Z,10.55
2024-02-08T22:49:15.927Z,10.72
2024-02-08T22:51:47.589Z,10.74
2024-02-08T22:54:15.990Z,10.74
2024-02-08T22:56:45.380Z,10.41
2024-02-08T22:59:13.673Z,10.43
2024-02-08T23:01:44.577Z,10.22
2024-02-08T23:04:15.464Z,10.45
2024-02-08T23:06:44.065Z,10.42
2024-02-08T23:09:17.430Z,10.43
2024-02-08T23:11:47.361Z,10.41
2024-02-08T23:14:20.652Z,10.40
2024-02-08T23:16:52.830Z,10.45
2024-02-08T23:19:21.418Z,10.42
2024-02-08T23:21:55.356Z,10.45
2024-02-08T23:24:26.241Z,10.44
2024-02-08T23:26:54.354Z,10.46
2024-02-08T23:29:25.680Z,10.45
2024-02-08T23:31:53.747Z,10.45
2024-02-08T23:34:21.447Z,10.46
2024-02-08T23:36:55.892Z,10.39
2024-02-08T23:39:29.172Z,10.52
2024-02-08T23:41:59.686Z,10.55
2024-02-08T23:44:30.428Z,10.54
2024-02-08T23:46:57.984Z,10.49
2024-02-08T23:49:27.418Z,10.47
2024-02-08T23:51:57.062Z,10.36
2024-02-08T23:54:25.041Z,10.26
2024-02-08T23:56:56.579Z,10.12
2024-02-08T23:59:24.240Z,10.14
